首页
METAR-TAF:

METAR-TAF

机场 :

布鲁塞尔机场

布鲁塞尔, 比利时

纬度: 50-54N, 经度: 004-32E, 海拔: 55米

当前天气观测

该预报发布于42分钟前的01:20 UTC
风速5节,风向东转东南
温度 -1°C
湿度 93%
气压 997 hPa
能見度: 9000
散云层高于800英尺
多云层高于2600英尺

METAR: EBBR 230120Z 12005KT 9000 SCT008 BKN026 M01/M02 Q0997 TEMPO BKN008

时间: 03:02 (02:02 UTC)

预报

该预报发布于2小时和42分钟前的23:20 UTC
预报有效从23日的 00点(UTC)到 24日的 06点(UTC)
风速7节,风向南转南东
能見度: 7000
多云层高于800英尺
短暂存在
从 23日的 03点(UTC)到 23日的 09点(UTC)
能見度: 3000
小雪
几率 30% :
短暂存在
从 23日的 05点(UTC)到 23日的 08点(UTC)
能見度: 1100
多云层高于200英尺
成为
从 23日的 09点(UTC)到 23日的 11点(UTC)
散云层高于1400英尺
成为
从 23日的 15点(UTC)到 23日的 17点(UTC)
多云层高于800英尺
短暂存在
从 23日的 18点(UTC)到 23日的 24点(UTC)
能見度: 2000
多云层高于300英尺

TAF: EBBR 222320Z 2300/2406 16007KT 7000 BKN008 TEMPO 2303/2309 3000 -SN PROB30 TEMPO 2305/2308 1100 SN BKN002 BECMG 2309/2311 SCT014 BECMG 2315/2317 BKN008 TEMPO 2318/2324 2000 SN BKN003

超过4000个机场的气象观测和天气预报(METAR&TAF报告)。

可查询的气象台以黄色和红色小点在地图上表示。

将鼠标移到小点上方,可查看气象台名称。

然后点击查看天气观测和预报。

如需切换地图:点击带黑十字的绿色按钮放大地图;点击带横线的绿色按钮缩小地图;或者点击绿色箭头查看邻近地区的地图。


METAR-TAF: